Time;durP1;ratioP1;P1;durP2;ratioP2;P2;SDS_P1;SDS_P2;PMS_P1;PMS_P2;Temp;Humidity;BMP_temperature;BMP_pressure;BME280_temperature;BME280_humidity;BME280_pressure;Samples;Min_cycle;Max_cycle;Signal;HPM_P1;HPM_P2
2022/05/03 00:01:59;;;;;;;11.90;6.80;;;14.20;98.90;;;;;;5099821;28;20406;-52
2022/05/03 00:04:37;;;;;;;12.40;6.73;;;14.20;98.60;;;;;;5099959;28;20450;-54
2022/05/03 00:07:14;;;;;;;9.20;6.30;;;14.20;98.40;;;;;;5099673;28;20474;-56
2022/05/03 00:09:50;;;;;;;9.93;6.80;;;14.20;98.20;;;;;;5099774;28;20414;-48
2022/05/03 00:12:24;;;;;;;7.73;5.70;;;14.20;98.00;;;;;;5099732;28;20426;-61
2022/05/03 00:14:56;;;;;;;9.67;6.60;;;14.20;97.60;;;;;;5099579;28;20449;-55
2022/05/03 00:17:24;;;;;;;8.43;6.53;;;14.20;96.80;;;;;;5099574;28;20455;-53
2022/05/03 00:19:56;;;;;;;9.17;7.10;;;14.20;96.80;;;;;;5099531;28;20510;-57
2022/05/03 00:22:26;;;;;;;8.03;6.23;;;14.20;96.40;;;;;;5099249;28;20458;-54
2022/05/03 00:24:54;;;;;;;8.03;5.80;;;14.20;96.00;;;;;;5099266;28;20430;-63
2022/05/03 00:27:24;;;;;;;8.70;5.50;;;14.30;96.00;;;;;;5099236;28;20489;-54
2022/05/03 00:29:52;;;;;;;6.47;5.63;;;14.20;95.70;;;;;;5099327;28;20427;-56
2022/05/03 00:32:21;;;;;;;8.70;7.10;;;14.20;95.80;;;;;;5098901;28;20465;-56
2022/05/03 00:34:50;;;;;;;11.23;6.90;;;14.30;96.20;;;;;;5098997;28;20478;-49
2022/05/03 00:37:17;;;;;;;10.90;5.73;;;14.20;96.10;;;;;;5098942;28;20422;-58
2022/05/03 00:39:45;;;;;;;8.93;6.27;;;14.20;96.00;;;;;;5099114;28;20446;-57
2022/05/03 00:42:16;;;;;;;8.80;5.87;;;14.20;96.30;;;;;;5098897;28;20472;-60
2022/05/03 00:45:03;;;;;;;10.77;6.40;;;14.20;96.30;;;;;;5098719;28;20546;-61
2022/05/03 00:47:42;;;;;;;7.60;5.40;;;14.20;96.40;;;;;;5098708;28;20553;-57
2022/05/03 00:50:12;;;;;;;9.73;6.07;;;14.10;96.80;;;;;;5098189;28;20464;-53
2022/05/03 00:52:45;;;;;;;11.47;6.30;;;14.00;97.10;;;;;;5098500;28;20474;-53
2022/05/03 00:55:42;;;;;;;7.30;5.60;;;14.00;97.30;;;;;;5098496;28;20430;-58
2022/05/03 00:58:19;;;;;;;13.60;6.63;;;14.00;98.10;;;;;;5098546;28;20407;-55
2022/05/03 01:00:57;;;;;;;9.20;6.07;;;14.00;99.00;;;;;;5098821;28;20440;-56
2022/05/03 01:03:29;;;;;;;9.13;5.50;;;14.00;99.50;;;;;;5098708;28;20415;-50
2022/05/03 01:06:18;;;;;;;10.63;6.53;;;14.00;99.50;;;;;;5098418;28;20482;-53
2022/05/03 01:08:54;;;;;;;9.53;5.23;;;13.90;99.90;;;;;;5098445;28;20426;-55
2022/05/03 01:11:35;;;;;;;7.23;5.80;;;13.90;99.40;;;;;;5098193;28;20488;-53
2022/05/03 01:14:14;;;;;;;13.23;6.37;;;13.80;99.90;;;;;;5098170;28;20528;-57
2022/05/03 01:16:47;;;;;;;9.77;5.53;;;13.80;99.70;;;;;;5097807;28;20427;-53
2022/05/03 01:22:06;;;;;;;14.10;6.10;;;13.70;99.90;;;;;;5148748;22;20513;-51
2022/05/03 01:24:54;;;;;;;8.63;6.80;;;13.70;99.90;;;;;;5057235;28;20456;-60
2022/05/03 01:28:00;;;;;;;9.83;7.00;;;13.60;99.90;;;;;;5056241;28;20464;-51
2022/05/03 01:30:30;;;;;;;11.77;6.00;;;13.50;99.90;;;;;;5055107;28;20459;-56
2022/05/03 01:33:06;;;;;;;9.40;6.23;;;13.50;99.90;;;;;;5056069;28;20504;-58
2022/05/03 01:35:38;;;;;;;8.90;6.77;;;13.40;99.90;;;;;;5055747;28;20467;-52
2022/05/03 01:38:15;;;;;;;8.80;6.60;;;13.30;99.90;;;;;;5056011;28;20420;-58
2022/05/03 01:41:06;;;;;;;13.93;5.80;;;13.20;99.90;;;;;;5055895;28;20431;-59
2022/05/03 01:43:52;;;;;;;9.70;6.10;;;13.00;99.90;;;;;;5055629;28;20440;-59
2022/05/03 01:46:25;;;;;;;7.57;5.70;;;13.00;99.90;;;;;;5055466;28;20447;-55
2022/05/03 01:52:08;;;;;;;7.83;5.77;;;13.00;99.90;;;;;;5055435;28;20439;-57
2022/05/03 01:54:59;;;;;;;7.77;5.73;;;12.90;99.90;;;;;;5054843;28;20472;-54
2022/05/03 01:57:37;;;;;;;8.23;5.90;;;12.90;99.90;;;;;;5055004;28;20453;-54
2022/05/03 02:00:09;;;;;;;9.60;6.40;;;12.90;99.90;;;;;;5054989;28;20467;-54
2022/05/03 02:02:53;;;;;;;7.23;5.60;;;12.90;99.90;;;;;;5054938;28;20424;-56
2022/05/03 02:05:30;;;;;;;9.10;5.40;;;12.90;99.90;;;;;;5054859;28;20441;-56
2022/05/03 02:07:58;;;;;;;10.30;7.53;;;12.90;99.90;;;;;;5055672;28;20480;-57
2022/05/03 02:10:42;;;;;;;18.80;6.80;;;12.90;99.90;;;;;;5055206;28;20444;-57
2022/05/03 02:13:28;;;;;;;10.00;6.60;;;12.90;99.90;;;;;;5055067;28;20424;-54
2022/05/03 02:16:07;;;;;;;6.53;5.93;;;12.80;99.90;;;;;;5055258;28;20432;-58
2022/05/03 02:18:48;;;;;;;7.27;5.97;;;12.80;99.90;;;;;;5055377;28;20476;-52
2022/05/03 02:21:18;;;;;;;15.90;7.13;;;12.70;99.90;;;;;;5054816;28;20455;-51
2022/05/03 02:23:57;;;;;;;8.87;6.23;;;12.70;99.90;;;;;;5054904;28;20460;-56
2022/05/03 02:26:37;;;;;;;10.23;7.80;;;12.60;99.90;;;;;;5054528;28;20500;-58
2022/05/03 02:29:07;;;;;;;7.40;6.40;;;12.50;99.90;;;;;;5055075;28;20452;-57
2022/05/03 02:31:45;;;;;;;12.20;6.80;;;12.50;99.90;;;;;;5055111;28;20428;-54
2022/05/03 02:34:29;;;;;;;8.60;6.90;;;12.40;99.90;;;;;;5054552;28;20467;-54
2022/05/03 02:37:03;;;;;;;8.03;7.23;;;12.30;99.90;;;;;;5054493;28;20456;-56
2022/05/03 02:39:32;;;;;;;11.23;6.73;;;12.30;99.90;;;;;;5055030;28;20464;-59
2022/05/03 02:42:02;;;;;;;8.20;5.90;;;12.20;99.90;;;;;;5055313;28;20441;-51
2022/05/03 02:44:30;;;;;;;10.70;7.50;;;12.20;99.90;;;;;;5054586;28;20451;-58
2022/05/03 02:47:06;;;;;;;12.60;6.93;;;12.20;99.90;;;;;;5054539;28;20464;-55
2022/05/03 02:50:09;;;;;;;9.30;7.60;;;12.10;99.90;;;;;;5054478;28;20481;-54
2022/05/03 02:52:42;;;;;;;9.00;6.50;;;12.10;99.90;;;;;;5022691;28;20436;-58
2022/05/03 02:55:22;;;;;;;12.93;6.73;;;12.10;99.90;;;;;;5054767;28;20413;-57
2022/05/03 02:57:59;;;;;;;10.13;6.67;;;12.00;99.90;;;;;;5054640;28;20440;-59
2022/05/03 03:03:42;;;;;;;8.37;6.83;;;12.00;99.90;;;;;;5055156;28;20416;-54
2022/05/03 03:06:23;;;;;;;13.00;6.57;;;12.00;99.90;;;;;;5056597;28;20476;-58
2022/05/03 03:08:55;;;;;;;8.97;5.53;;;12.00;99.90;;;;;;5058020;28;20493;-54
2022/05/03 03:11:31;;;;;;;8.00;5.77;;;11.90;99.90;;;;;;5058307;28;20428;-58
2022/05/03 03:14:09;;;;;;;11.67;6.67;;;11.90;99.90;;;;;;5058751;28;20892;-53
2022/05/03 03:16:52;;;;;;;9.30;6.27;;;11.90;99.90;;;;;;5058271;28;20459;-58
2022/05/03 03:19:34;;;;;;;12.77;6.70;;;11.90;99.90;;;;;;5057844;28;20432;-59
2022/05/03 03:22:14;;;;;;;11.00;6.67;;;11.90;99.90;;;;;;5057928;28;20475;-54
2022/05/03 03:24:43;;;;;;;9.07;6.23;;;11.90;99.90;;;;;;5058153;28;20432;-56
2022/05/03 03:27:15;;;;;;;8.70;6.30;;;11.90;99.90;;;;;;5058172;28;20475;-46
2022/05/03 03:29:45;;;;;;;14.43;6.67;;;11.90;99.90;;;;;;5057728;28;20424;-56
2022/05/03 03:32:12;;;;;;;12.60;6.97;;;11.90;99.90;;;;;;5057506;28;20549;-55
2022/05/03 03:34:42;;;;;;;16.83;7.47;;;11.80;99.90;;;;;;5057712;28;20440;-58
2022/05/03 03:37:12;;;;;;;8.47;5.23;;;11.80;99.90;;;;;;5057400;28;20456;-55
2022/05/03 03:39:39;;;;;;;7.80;6.07;;;11.80;99.90;;;;;;5057429;28;20424;-56
2022/05/03 03:42:09;;;;;;;12.73;6.00;;;11.80;99.90;;;;;;5057656;28;20436;-56
2022/05/03 03:44:37;;;;;;;14.80;6.50;;;11.80;99.90;;;;;;5056928;28;20444;-56
2022/05/03 03:47:10;;;;;;;9.67;6.43;;;11.70;99.90;;;;;;5056184;28;20490;-57
2022/05/03 03:49:40;;;;;;;8.63;5.50;;;11.60;99.90;;;;;;5057144;28;20499;-56
2022/05/03 03:52:08;;;;;;;10.13;6.70;;;11.60;99.90;;;;;;5057477;28;20428;-54
2022/05/03 03:54:42;;;;;;;9.50;5.97;;;11.60;99.90;;;;;;5056966;28;20468;-57
2022/05/03 03:57:13;;;;;;;9.00;5.70;;;11.50;99.90;;;;;;5057059;28;20425;-55
2022/05/03 03:59:40;;;;;;;12.33;7.00;;;11.50;99.90;;;;;;5057428;28;20653;-56
2022/05/03 04:02:10;;;;;;;11.40;7.03;;;11.50;99.90;;;;;;5057116;28;20475;-55
2022/05/03 04:04:38;;;;;;;8.63;6.23;;;11.50;99.90;;;;;;5056893;28;20456;-53
2022/05/03 04:07:05;;;;;;;9.30;6.27;;;11.40;99.90;;;;;;5057137;28;20530;-57
2022/05/03 04:09:32;;;;;;;9.93;5.57;;;11.40;99.90;;;;;;5056915;28;20439;-52
2022/05/03 04:12:06;;;;;;;11.80;6.57;;;11.50;99.90;;;;;;5057224;28;20463;-56
2022/05/03 04:14:37;;;;;;;8.30;5.37;;;11.50;99.90;;;;;;5056472;28;20463;-52
2022/05/03 04:17:10;;;;;;;9.60;6.13;;;11.60;99.90;;;;;;5056151;28;20495;-58
2022/05/03 04:19:43;;;;;;;8.97;6.20;;;11.60;99.90;;;;;;5056826;28;20460;-58
2022/05/03 04:22:23;;;;;;;13.93;6.70;;;11.60;99.90;;;;;;5057228;28;20502;-56
2022/05/03 04:24:50;;;;;;;11.67;5.53;;;11.60;99.90;;;;;;5056687;28;20463;-59
2022/05/03 04:27:25;;;;;;;7.27;5.33;;;11.60;99.90;;;;;;5056891;28;20475;-58
2022/05/03 04:29:52;;;;;;;8.03;5.20;;;11.60;99.90;;;;;;5057629;28;20415;-59
2022/05/03 04:32:19;;;;;;;10.13;5.90;;;11.70;99.90;;;;;;5056997;28;20462;-53
2022/05/03 04:34:45;;;;;;;10.40;6.10;;;11.60;99.90;;;;;;5056507;28;20431;-56
2022/05/03 04:37:12;;;;;;;14.43;5.50;;;11.70;99.90;;;;;;5056691;28;20451;-58
2022/05/03 04:39:46;;;;;;;18.63;7.67;;;11.70;99.90;;;;;;5056593;28;20502;-58
2022/05/03 04:42:13;;;;;;;15.17;6.57;;;11.80;99.90;;;;;;5056642;28;20428;-58
2022/05/03 04:44:41;;;;;;;10.00;6.27;;;11.80;99.90;;;;;;5056417;28;20490;-58
2022/05/03 04:47:12;;;;;;;11.63;6.67;;;11.80;99.90;;;;;;5056764;28;20472;-52
2022/05/03 04:49:39;;;;;;;12.20;6.70;;;11.90;99.90;;;;;;5056877;28;20548;-56
2022/05/03 04:52:08;;;;;;;11.63;5.60;;;11.90;99.90;;;;;;5056724;28;20436;-53
2022/05/03 04:54:39;;;;;;;12.97;6.40;;;12.00;99.90;;;;;;5056115;28;20460;-54
2022/05/03 04:57:09;;;;;;;7.97;6.00;;;12.10;99.90;;;;;;5056675;28;20408;-57
2022/05/03 04:59:37;;;;;;;11.57;6.07;;;12.20;99.90;;;;;;5056420;28;20524;-57
2022/05/03 05:02:14;;;;;;;10.70;6.20;;;12.30;99.90;;;;;;5056388;28;20432;-60
2022/05/03 05:04:44;;;;;;;12.13;6.70;;;12.40;99.90;;;;;;5056576;28;20412;-59
2022/05/03 05:07:11;;;;;;;10.53;6.43;;;12.40;99.90;;;;;;5055889;28;20537;-52
2022/05/03 05:10:22;;;;;;;10.23;5.57;;;12.50;99.90;;;;;;5056371;28;20444;-52
2022/05/03 05:12:24;;;;;;;7.40;5.17;;;12.60;99.90;;;;;;5055103;28;20464;-58
2022/05/03 05:14:52;;;;;;;6.60;5.17;;;12.70;99.90;;;;;;5055378;28;20445;-61
2022/05/03 05:17:20;;;;;;;14.57;5.47;;;12.80;99.90;;;;;;5056070;28;20471;-57
2022/05/03 05:19:52;;;;;;;10.30;5.67;;;12.80;99.90;;;;;;5055251;28;20444;-57
2022/05/03 05:22:19;;;;;;;7.53;5.50;;;12.90;99.90;;;;;;5055074;28;20463;-56
2022/05/03 05:24:45;;;;;;;11.10;6.80;;;12.90;99.90;;;;;;5054961;28;20441;-58
2022/05/03 05:27:14;;;;;;;13.83;5.83;;;13.00;99.90;;;;;;5054928;28;20534;-59
2022/05/03 05:29:47;;;;;;;10.40;5.20;;;13.10;99.90;;;;;;5054363;28;20439;-53
2022/05/03 05:32:15;;;;;;;8.40;5.23;;;13.20;99.90;;;;;;5055454;28;20424;-58
2022/05/03 05:34:43;;;;;;;22.37;6.70;;;13.20;99.90;;;;;;5055455;28;20468;-57
2022/05/03 05:37:10;;;;;;;8.67;4.93;;;13.30;99.90;;;;;;5055586;28;20440;-53
2022/05/03 05:39:41;;;;;;;9.70;5.33;;;13.30;99.90;;;;;;5055368;28;20444;-59
2022/05/03 05:42:08;;;;;;;8.93;4.67;;;13.40;99.90;;;;;;5055858;28;20440;-53
2022/05/03 05:44:36;;;;;;;12.23;4.97;;;13.50;99.90;;;;;;5055131;28;20463;-58
2022/05/03 05:47:04;;;;;;;12.60;4.50;;;13.60;99.70;;;;;;5055312;28;20514;-58
2022/05/03 05:49:35;;;;;;;19.53;5.07;;;13.60;98.80;;;;;;5055522;28;20478;-57
2022/05/03 05:54:52;;;;;;;7.63;4.23;;;13.80;97.20;;;;;;5023181;28;20416;-52
2022/05/03 05:57:19;;;;;;;6.17;4.00;;;13.90;96.90;;;;;;5055107;28;20470;-53
2022/05/03 05:59:46;;;;;;;8.97;4.73;;;14.00;95.90;;;;;;5055737;28;20456;-58
2022/05/03 06:02:13;;;;;;;6.67;4.50;;;14.10;95.80;;;;;;5055305;28;20464;-58
2022/05/03 06:04:48;;;;;;;9.50;4.63;;;14.10;95.10;;;;;;5056047;28;20444;-56
2022/05/03 06:07:16;;;;;;;6.40;4.23;;;14.20;94.50;;;;;;5056406;28;20452;-55
2022/05/03 06:09:44;;;;;;;5.03;4.10;;;14.40;94.20;;;;;;5056261;28;20442;-59
2022/05/03 06:12:11;;;;;;;15.33;3.70;;;14.40;93.60;;;;;;5056276;28;20448;-59
2022/05/03 06:14:38;;;;;;;4.90;3.80;;;14.50;93.20;;;;;;5055607;28;20436;-56
2022/05/03 06:17:05;;;;;;;8.83;3.37;;;14.60;92.50;;;;;;5055079;28;20428;-57
2022/05/03 06:19:35;;;;;;;11.50;3.23;;;14.70;91.20;;;;;;5055570;28;20806;-57
2022/05/03 06:22:04;;;;;;;3.93;3.07;;;14.80;90.40;;;;;;5055776;28;20467;-61
2022/05/03 06:24:39;;;;;;;5.47;2.90;;;14.90;89.50;;;;;;5055702;28;20479;-59
2022/05/03 06:27:06;;;;;;;4.90;2.90;;;15.00;87.50;;;;;;5055855;28;20457;-60
2022/05/03 06:29:33;;;;;;;3.60;2.80;;;15.10;85.50;;;;;;5055416;28;20436;-55
2022/05/03 06:32:02;;;;;;;8.17;3.30;;;15.10;85.40;;;;;;5055020;28;20451;-48
2022/05/03 06:34:34;;;;;;;5.40;4.90;;;15.20;84.80;;;;;;5055860;28;20464;-62
2022/05/03 06:37:04;;;;;;;2.60;2.03;;;15.20;83.70;;;;;;5055176;28;20408;-54
2022/05/03 06:39:30;;;;;;;4.20;2.47;;;15.20;82.30;;;;;;5056613;28;20474;-56
2022/05/03 06:42:00;;;;;;;6.93;2.70;;;15.20;81.70;;;;;;5059330;28;20522;-59
2022/05/03 06:44:27;;;;;;;5.77;2.80;;;15.20;81.80;;;;;;5059216;28;20436;-58
2022/05/03 06:46:54;;;;;;;3.70;2.33;;;15.10;83.20;;;;;;5053989;28;20459;-47
2022/05/03 06:49:20;;;;;;;6.97;2.97;;;15.10;83.50;;;;;;5059679;28;20432;-58
2022/05/03 06:51:49;;;;;;;4.63;2.87;;;15.00;81.50;;;;;;5074961;28;20465;-57
2022/05/03 06:54:17;;;;;;;5.20;2.03;;;15.00;82.10;;;;;;5078959;28;20883;-58
2022/05/03 06:56:44;;;;;;;3.50;1.80;;;15.00;82.10;;;;;;5079025;28;20439;-58
2022/05/03 06:59:12;;;;;;;2.67;1.93;;;15.00;82.60;;;;;;5078758;28;20477;-53
2022/05/03 07:01:39;;;;;;;2.87;1.73;;;15.00;82.40;;;;;;5078681;28;20474;-57
2022/05/03 07:04:06;;;;;;;6.07;2.37;;;15.20;83.40;;;;;;5078624;28;20482;-56
2022/05/03 07:06:32;;;;;;;2.97;1.97;;;15.20;80.50;;;;;;5078240;28;20444;-54
2022/05/03 07:08:59;;;;;;;10.10;2.63;;;15.20;81.00;;;;;;5078099;28;20479;-54
2022/05/03 07:11:26;;;;;;;4.47;1.90;;;15.30;79.60;;;;;;5078480;28;20439;-54
2022/05/03 07:13:52;;;;;;;6.10;2.43;;;15.30;78.40;;;;;;5078231;28;20423;-54
2022/05/03 07:16:22;;;;;;;2.80;1.97;;;15.40;79.20;;;;;;5077874;28;20469;-56
2022/05/03 07:24:20;;;;;;;5.30;2.53;;;15.90;76.70;;;;;;5078289;28;20426;-51
2022/05/03 07:26:49;;;;;;;4.60;2.27;;;16.10;76.20;;;;;;5078465;28;20447;-57
2022/05/03 07:29:15;;;;;;;4.80;2.20;;;16.30;73.70;;;;;;5078096;28;20474;-56
2022/05/03 07:31:45;;;;;;;9.80;2.70;;;16.40;73.60;;;;;;5078601;28;20451;-52
2022/05/03 07:34:18;;;;;;;2.93;2.13;;;16.50;73.70;;;;;;5078063;28;20432;-57
2022/05/03 07:36:45;;;;;;;4.53;2.00;;;16.70;73.20;;;;;;5078234;28;20477;-60
2022/05/03 07:39:15;;;;;;;6.40;2.77;;;16.80;71.90;;;;;;5078599;28;20436;-58
2022/05/03 07:41:47;;;;;;;4.10;2.77;;;16.90;71.50;;;;;;5078543;28;20434;-58
2022/05/03 07:44:14;;;;;;;7.73;2.80;;;17.10;71.70;;;;;;5078243;28;20487;-54
2022/05/03 07:46:41;;;;;;;4.93;2.33;;;17.60;70.70;;;;;;5078181;28;20831;-58
2022/05/03 07:49:10;;;;;;;6.43;3.23;;;17.90;68.70;;;;;;5078181;28;20486;-52
2022/05/03 07:51:37;;;;;;;8.10;2.00;;;18.50;68.30;;;;;;5077073;28;20459;-60
2022/05/03 07:54:04;;;;;;;3.30;2.30;;;20.00;65.50;;;;;;5077947;28;20474;-59
2022/05/03 07:56:31;;;;;;;7.03;3.13;;;21.80;59.60;;;;;;5078322;28;20424;-60
2022/05/03 07:58:57;;;;;;;4.63;3.13;;;23.50;55.80;;;;;;5078299;28;20478;-55
2022/05/03 08:01:24;;;;;;;6.53;3.20;;;24.50;52.80;;;;;;5077887;28;20443;-57
2022/05/03 08:03:51;;;;;;;7.30;3.17;;;25.30;50.00;;;;;;5078029;28;20423;-53
2022/05/03 08:06:18;;;;;;;3.13;2.50;;;25.40;48.20;;;;;;5077640;28;20481;-56
2022/05/03 08:08:45;;;;;;;4.07;2.60;;;25.70;47.70;;;;;;5078362;28;20510;-55
2022/05/03 08:11:12;;;;;;;4.60;2.70;;;26.00;45.90;;;;;;5077377;28;20481;-53
2022/05/03 08:13:38;;;;;;;3.30;2.50;;;26.30;44.20;;;;;;5077486;28;20443;-58
2022/05/03 08:16:17;;;;;;;2.10;1.90;;;26.90;43.50;;;;;;5077821;28;20439;-58
2022/05/03 08:18:44;;;;;;;5.03;2.70;;;27.70;42.10;;;;;;5078569;28;20432;-59
2022/05/03 08:21:11;;;;;;;5.17;2.77;;;28.10;40.70;;;;;;5075089;28;20451;-57
2022/05/03 08:23:39;;;;;;;4.40;2.40;;;28.00;40.10;;;;;;5075858;28;20454;-62
2022/05/03 08:26:08;;;;;;;4.80;3.20;;;28.30;39.80;;;;;;5075530;28;20467;-59
2022/05/03 08:28:35;;;;;;;3.43;2.97;;;27.70;40.70;;;;;;5075390;28;20483;-59
2022/05/03 08:31:03;;;;;;;5.07;2.77;;;26.90;40.50;;;;;;5076015;28;20473;-59
2022/05/03 08:33:29;;;;;;;3.50;3.20;;;26.30;41.70;;;;;;5075692;28;20547;-59
2022/05/03 08:35:56;;;;;;;4.87;3.30;;;25.60;42.20;;;;;;5075778;28;20477;-60
2022/05/03 08:43:54;;;;;;;4.13;2.50;;;24.60;44.10;;;;;;5076034;28;20443;-58
2022/05/03 08:46:23;;;;;;;3.87;3.47;;;24.00;45.10;;;;;;5075949;28;20494;-63
2022/05/03 08:48:54;;;;;;;5.90;3.57;;;23.10;45.50;;;;;;5076811;28;20490;-59
2022/05/03 08:51:22;;;;;;;3.57;2.90;;;22.60;46.70;;;;;;5077178;28;20566;-58
2022/05/03 08:53:50;;;;;;;3.27;2.67;;;22.10;47.20;;;;;;5076954;28;20440;-49
2022/05/03 08:56:20;;;;;;;4.83;3.43;;;22.20;47.40;;;;;;5076599;28;20497;-60
2022/05/03 08:58:47;;;;;;;5.60;3.30;;;22.50;46.90;;;;;;5077392;28;20477;-54
2022/05/03 09:01:15;;;;;;;6.63;3.37;;;23.00;47.10;;;;;;5076938;28;20509;-62
2022/05/03 09:03:42;;;;;;;4.80;3.67;;;23.70;45.90;;;;;;5076958;28;20444;-58
2022/05/03 09:06:09;;;;;;;3.20;2.90;;;24.40;45.10;;;;;;5076342;28;20474;-59
2022/05/03 09:08:37;;;;;;;4.60;3.57;;;24.80;44.10;;;;;;5075646;28;20479;-59
2022/05/03 09:11:14;;;;;;;3.87;2.90;;;25.40;43.60;;;;;;5076115;28;20458;-58
2022/05/03 09:13:43;;;;;;;6.83;2.83;;;25.90;43.30;;;;;;5075382;28;20455;-60
2022/05/03 09:16:11;;;;;;;3.10;2.47;;;26.60;42.50;;;;;;5075357;28;20450;-57
2022/05/03 09:18:38;;;;;;;3.03;2.70;;;26.70;40.60;;;;;;5075485;28;20446;-59
2022/05/03 09:24:05;;;;;;;6.17;2.90;;;27.20;40.30;;;;;;5075073;28;20479;-57
2022/05/03 09:26:33;;;;;;;5.50;3.10;;;27.40;39.80;;;;;;5074780;28;20450;-60
2022/05/03 09:29:03;;;;;;;3.47;2.03;;;27.70;39.40;;;;;;5074802;28;20474;-62
2022/05/03 09:31:32;;;;;;;3.00;2.60;;;28.00;38.20;;;;;;5074746;28;20435;-60
2022/05/03 09:34:02;;;;;;;2.63;2.40;;;28.30;38.20;;;;;;5074006;28;20415;-59
2022/05/03 09:36:29;;;;;;;5.30;2.23;;;28.50;37.10;;;;;;5073640;28;20443;-60
2022/05/03 09:38:56;;;;;;;4.53;2.23;;;28.40;37.00;;;;;;5073782;28;20439;-56
2022/05/03 09:41:23;;;;;;;3.90;2.50;;;28.60;37.80;;;;;;5074776;28;20420;-59
2022/05/03 09:44:09;;;;;;;4.60;3.00;;;28.80;36.20;;;;;;5076062;28;20443;-62
2022/05/03 09:46:51;;;;;;;4.33;3.27;;;28.70;35.90;;;;;;5076938;28;20479;-60
2022/05/03 09:49:20;;;;;;;3.07;2.10;;;28.80;36.10;;;;;;5063431;28;20452;-49
2022/05/03 09:51:49;;;;;;;6.00;2.50;;;28.70;36.60;;;;;;5055638;28;20446;-58
2022/05/03 09:54:16;;;;;;;7.50;2.80;;;28.30;36.70;;;;;;5055763;28;20436;-62
2022/05/03 09:56:47;;;;;;;2.20;2.00;;;28.40;37.30;;;;;;5056122;28;20440;-60
2022/05/03 09:59:17;;;;;;;4.53;2.03;;;28.50;37.20;;;;;;5057054;28;20447;-52
2022/05/03 10:01:44;;;;;;;2.47;2.27;;;28.50;37.00;;;;;;5056769;28;20468;-50
2022/05/03 10:04:11;;;;;;;4.80;2.23;;;28.30;36.20;;;;;;5057303;28;20444;-43
2022/05/03 10:06:38;;;;;;;5.07;2.33;;;28.20;36.30;;;;;;5055189;28;20503;-48
2022/05/03 10:09:05;;;;;;;4.70;2.10;;;28.30;35.90;;;;;;5054034;28;20515;-51
2022/05/03 10:11:34;;;;;;;5.07;2.13;;;28.00;36.10;;;;;;5054281;28;20503;-47
2022/05/03 10:14:01;;;;;;;2.63;1.70;;;28.10;36.40;;;;;;5054000;28;20499;-46
2022/05/03 10:22:04;;;;;;;5.83;2.13;;;27.60;36.40;;;;;;5055147;28;20450;-45
2022/05/03 10:24:33;;;;;;;2.70;1.87;;;27.50;37.00;;;;;;5053956;28;20456;-50
2022/05/03 10:27:05;;;;;;;2.87;2.10;;;27.10;37.10;;;;;;5053697;28;20452;-44
2022/05/03 10:29:33;;;;;;;3.00;2.20;;;26.80;38.10;;;;;;5055661;28;20480;-47
2022/05/03 10:32:03;;;;;;;1.67;1.47;;;26.70;38.10;;;;;;5055492;28;20455;-46
2022/05/03 10:34:59;;;;;;;2.20;1.87;;;26.70;38.80;;;;;;5055562;28;20452;-46
2022/05/03 10:38:03;;;;;;;2.90;1.60;;;26.60;38.60;;;;;;5038683;28;20439;-45
2022/05/03 10:40:31;;;;;;;2.00;1.80;;;26.30;38.60;;;;;;5056214;28;20440;-48
2022/05/03 10:43:07;;;;;;;3.50;2.53;;;26.40;39.10;;;;;;5055624;28;20424;-44
2022/05/03 10:45:52;;;;;;;7.80;2.37;;;26.20;39.00;;;;;;5055647;28;20454;-42
2022/05/03 10:48:28;;;;;;;2.00;1.80;;;25.70;39.20;;;;;;5055917;28;20420;-44
2022/05/03 10:50:57;;;;;;;2.30;2.03;;;25.10;40.40;;;;;;5055717;28;20452;-49
2022/05/03 10:53:29;;;;;;;3.30;1.70;;;24.80;40.70;;;;;;5055445;28;20460;-42
2022/05/03 10:56:07;;;;;;;3.13;2.00;;;24.60;41.40;;;;;;5055268;28;20424;-44
2022/05/03 10:58:36;;;;;;;2.03;1.50;;;24.40;41.60;;;;;;5055963;28;20466;-44
2022/05/03 11:01:05;;;;;;;6.00;1.70;;;24.30;40.90;;;;;;5055269;28;20428;-49
2022/05/03 11:03:34;;;;;;;2.80;1.97;;;24.20;40.80;;;;;;5055949;28;20436;-56
2022/05/03 11:06:49;;;;;;;2.47;2.20;;;24.00;41.00;;;;;;5055519;28;20445;-50
2022/05/03 11:09:26;;;;;;;2.40;2.13;;;23.80;42.10;;;;;;5055823;28;20468;-44
2022/05/03 11:11:58;;;;;;;3.50;2.10;;;23.80;42.10;;;;;;5055705;28;20434;-44
2022/05/03 11:14:51;;;;;;;6.07;3.60;;;23.70;42.50;;;;;;5055889;28;20429;-47
2022/05/03 11:17:19;;;;;;;4.70;2.03;;;23.50;42.20;;;;;;5055654;28;20428;-45
2022/05/03 11:19:59;;;;;;;2.27;1.80;;;23.60;41.70;;;;;;5055969;28;20436;-47
2022/05/03 11:22:29;;;;;;;3.20;1.60;;;23.60;41.30;;;;;;5055823;28;20458;-43
2022/05/03 11:24:57;;;;;;;2.20;1.70;;;23.50;41.00;;;;;;5055398;28;20479;-52
2022/05/03 11:27:25;;;;;;;2.20;2.00;;;23.40;42.40;;;;;;5057747;28;20472;-49
2022/05/03 11:29:57;;;;;;;2.07;1.87;;;23.30;41.20;;;;;;5058846;28;20515;-44
2022/05/03 11:32:30;;;;;;;4.33;1.80;;;23.30;41.50;;;;;;5059191;28;20408;-52
2022/05/03 11:35:11;;;;;;;2.73;1.70;;;23.20;41.90;;;;;;5059014;28;20420;-46
2022/05/03 11:37:47;;;;;;;7.47;5.37;;;23.20;41.40;;;;;;5058663;28;20435;-46
2022/05/03 11:40:20;;;;;;;3.03;2.40;;;23.00;42.00;;;;;;5059280;28;20443;-45
2022/05/03 11:42:49;;;;;;;3.67;1.90;;;22.80;42.10;;;;;;5059530;28;20464;-46
2022/05/03 11:45:19;;;;;;;1.77;1.63;;;22.60;41.90;;;;;;5058904;28;20438;-49
2022/05/03 11:47:47;;;;;;;1.97;1.30;;;22.50;42.20;;;;;;5059519;28;20463;-52
2022/05/03 11:56:01;;;;;;;4.70;1.80;;;22.10;43.60;;;;;;5058463;28;20399;-49
2022/05/03 11:58:30;;;;;;;2.07;1.77;;;22.10;43.90;;;;;;5058543;28;20437;-44
2022/05/03 12:00:56;;;;;;;3.87;2.20;;;22.10;43.10;;;;;;5058657;28;20448;-47
2022/05/03 12:03:23;;;;;;;5.37;1.97;;;22.10;42.50;;;;;;5058372;28;20416;-46
2022/05/03 12:06:03;;;;;;;2.00;1.60;;;22.00;43.50;;;;;;5058626;28;20436;-51
2022/05/03 12:08:31;;;;;;;2.10;1.63;;;22.00;44.00;;;;;;5058455;28;20448;-48
2022/05/03 12:10:58;;;;;;;3.43;1.50;;;22.00;43.90;;;;;;5058641;28;20444;-45
2022/05/03 12:13:30;;;;;;;2.50;1.50;;;21.90;42.90;;;;;;5058496;28;20455;-50
2022/05/03 12:16:10;;;;;;;2.00;1.10;;;21.90;43.20;;;;;;5058184;28;20436;-46
2022/05/03 12:18:40;;;;;;;2.57;1.30;;;21.70;43.00;;;;;;5058403;28;20465;-43
2022/05/03 12:21:11;;;;;;;1.50;1.03;;;21.60;43.80;;;;;;5058170;28;20436;-46
2022/05/03 12:23:41;;;;;;;2.93;1.30;;;21.70;43.60;;;;;;5058565;28;20421;-40
2022/05/03 12:26:32;;;;;;;1.83;1.20;;;21.70;43.10;;;;;;5058460;28;20432;-46
2022/05/03 12:29:00;;;;;;;2.60;1.10;;;21.60;43.50;;;;;;5058517;28;20483;-44
2022/05/03 12:31:30;;;;;;;4.33;1.90;;;21.60;44.00;;;;;;5058240;28;20444;-44
2022/05/03 12:33:58;;;;;;;2.80;1.13;;;21.60;44.90;;;;;;5058268;28;20443;-43
2022/05/03 12:36:31;;;;;;;1.50;1.40;;;21.60;44.30;;;;;;5058273;28;20432;-52
2022/05/03 12:39:09;;;;;;;1.53;1.17;;;21.60;44.00;;;;;;5058586;28;20480;-45
2022/05/03 12:41:37;;;;;;;1.77;1.33;;;21.60;44.50;;;;;;5058202;28;20450;-42
2022/05/03 12:44:05;;;;;;;1.53;1.37;;;21.60;45.20;;;;;;5058108;28;20443;-46
2022/05/03 12:46:33;;;;;;;1.83;1.60;;;21.70;45.30;;;;;;5058159;28;20462;-42
2022/05/03 12:49:03;;;;;;;5.90;1.33;;;21.80;44.50;;;;;;5057694;28;20539;-45
2022/05/03 12:51:32;;;;;;;1.30;1.20;;;21.70;44.40;;;;;;5058290;28;20455;-44
2022/05/03 12:54:02;;;;;;;3.60;2.60;;;21.60;45.20;;;;;;5057863;28;20452;-47
2022/05/03 12:59:13;;;;;;;3.00;1.50;;;21.40;45.80;;;;;;5057503;28;20451;-46
2022/05/03 13:01:40;;;;;;;2.70;1.27;;;21.40;45.90;;;;;;5057616;28;20456;-51
2022/05/03 13:04:08;;;;;;;2.80;1.40;;;21.40;46.40;;;;;;5057482;28;20461;-47
2022/05/03 13:06:37;;;;;;;2.00;1.63;;;21.30;46.40;;;;;;5057309;28;20448;-51
2022/05/03 13:09:06;;;;;;;1.93;1.27;;;21.20;46.10;;;;;;5057008;28;20483;-48
2022/05/03 13:11:38;;;;;;;3.57;1.50;;;21.20;46.10;;;;;;5057623;28;20468;-47
2022/05/03 13:14:05;;;;;;;1.30;1.10;;;21.10;46.40;;;;;;5057508;28;20492;-47
2022/05/03 13:16:31;;;;;;;1.63;1.43;;;21.00;46.30;;;;;;5057298;28;20451;-50
2022/05/03 13:18:58;;;;;;;2.90;1.30;;;21.00;46.20;;;;;;5057012;28;20472;-51
2022/05/03 13:21:25;;;;;;;1.97;1.30;;;20.90;46.40;;;;;;5056812;28;20514;-49
2022/05/03 13:23:54;;;;;;;6.97;1.47;;;20.90;47.00;;;;;;5057149;28;20456;-48
2022/05/03 13:26:21;;;;;;;2.20;1.40;;;20.80;46.90;;;;;;5057103;28;20441;-45
2022/05/03 13:28:47;;;;;;;2.80;1.40;;;20.60;47.40;;;;;;5056970;28;20464;-50
2022/05/03 13:31:14;;;;;;;3.80;1.57;;;20.60;47.40;;;;;;5056671;28;20454;-52
2022/05/03 13:33:41;;;;;;;2.87;1.10;;;20.60;47.90;;;;;;5056727;28;20460;-46
2022/05/03 13:41:38;;;;;;;3.60;1.47;;;20.60;48.40;;;;;;5057135;28;20404;-55
2022/05/03 13:44:05;;;;;;;4.03;1.80;;;20.70;48.60;;;;;;5056720;28;20464;-51
2022/05/03 13:46:33;;;;;;;1.37;1.23;;;20.80;48.80;;;;;;5056846;28;20413;-44
2022/05/03 13:48:59;;;;;;;1.33;1.20;;;20.80;48.90;;;;;;5056058;28;21445;-48
2022/05/03 13:51:26;;;;;;;1.70;1.10;;;20.90;47.90;;;;;;5056606;28;20475;-49
2022/05/03 13:53:55;;;;;;;1.40;1.07;;;20.80;47.50;;;;;;5056698;28;20440;-41